createdAt,value
2022-08-22T00:00:32.167Z,85.23
2022-08-22T00:02:59.283Z,85.36
2022-08-22T00:03:02.739Z,71.48
2022-08-22T00:06:28.267Z,85.19
2022-08-22T00:09:02.319Z,85.14
2022-08-22T00:11:47.163Z,84.79
2022-08-22T00:14:24.668Z,85.01
2022-08-22T00:17:20.299Z,85.13
2022-08-22T00:20:02.405Z,85.06
2022-08-22T00:22:28.723Z,85.22
2022-08-22T00:25:25.914Z,85.26
2022-08-22T00:28:15.431Z,85.08
2022-08-22T00:30:54.714Z,84.98
2022-08-22T00:34:01.847Z,85.38
2022-08-22T00:36:44.426Z,84.73
2022-08-22T00:39:20.927Z,85.51
2022-08-22T00:42:12.330Z,85.50
2022-08-22T00:44:49.692Z,85.58
2022-08-22T00:47:45.253Z,85.39
2022-08-22T00:50:26.555Z,85.57
2022-08-22T00:53:08.503Z,85.57
2022-08-22T00:55:45.863Z,86.23
2022-08-22T00:58:45.900Z,86.11
2022-08-22T01:01:17.368Z,86.94
2022-08-22T01:03:50.382Z,86.09
2022-08-22T01:06:28.901Z,86.50
2022-08-22T01:09:01.954Z,86.18
2022-08-22T01:12:02.799Z,86.33
2022-08-22T01:14:52.665Z,86.60
2022-08-22T01:17:30.908Z,85.90
2022-08-22T01:20:26.626Z,85.57
2022-08-22T01:23:27.156Z,85.48
2022-08-22T01:26:21.914Z,85.40
2022-08-22T01:28:53.316Z,84.83
2022-08-22T01:31:38.860Z,85.35
2022-08-22T01:34:12.842Z,86.22
2022-08-22T01:37:08.307Z,86.52
2022-08-22T01:40:12.978Z,86.56
2022-08-22T01:43:21.949Z,86.60
2022-08-22T01:46:33.007Z,86.41
2022-08-22T01:49:06.016Z,86.29
2022-08-22T01:52:09.506Z,85.48
2022-08-22T01:54:46.701Z,85.73
2022-08-22T01:57:14.400Z,85.81
2022-08-22T01:59:42.956Z,86.14
2022-08-22T02:02:20.719Z,85.93
2022-08-22T02:05:18.959Z,85.87
2022-08-22T02:07:56.333Z,85.74
2022-08-22T02:10:26.422Z,86.07
2022-08-22T02:13:07.351Z,86.34
2022-08-22T02:15:39.751Z,86.31
2022-08-22T02:18:06.125Z,86.41
2022-08-22T02:20:48.083Z,86.16
2022-08-22T02:23:32.847Z,86.08
2022-08-22T02:26:02.490Z,86.19
2022-08-22T02:28:57.215Z,86.61
2022-08-22T02:31:43.099Z,86.03
2022-08-22T02:34:40.129Z,85.87
2022-08-22T02:37:28.455Z,86.08
2022-08-22T02:40:17.830Z,86.35
2022-08-22T02:42:49.350Z,86.75
2022-08-22T02:45:22.828Z,86.91
2022-08-22T02:47:52.390Z,86.25
2022-08-22T02:50:28.091Z,86.09
2022-08-22T02:53:03.895Z,85.94
2022-08-22T02:55:30.182Z,86.15
2022-08-22T02:58:24.512Z,86.50
2022-08-22T03:01:14.129Z,86.64
2022-08-22T03:03:44.091Z,86.82
2022-08-22T03:06:35.118Z,86.61
2022-08-22T03:09:16.879Z,86.69
2022-08-22T03:11:53.339Z,87.19
2022-08-22T03:14:32.580Z,86.87
2022-08-22T03:17:16.651Z,86.62
2022-08-22T03:20:14.460Z,86.15
2022-08-22T03:23:02.343Z,85.95
2022-08-22T03:25:48.581Z,85.79
2022-08-22T03:28:22.059Z,85.91
2022-08-22T03:30:51.546Z,86.42
2022-08-22T03:33:27.562Z,86.52
2022-08-22T03:36:06.852Z,85.99
2022-08-22T03:38:33.910Z,86.28
2022-08-22T03:41:31.239Z,86.62
2022-08-22T03:44:22.405Z,86.48
2022-08-22T03:46:51.618Z,86.52
2022-08-22T03:49:40.371Z,86.14
2022-08-22T03:52:14.283Z,86.44
2022-08-22T03:55:14.590Z,86.33
2022-08-22T03:58:27.546Z,85.70
2022-08-22T04:01:13.835Z,86.12
2022-08-22T04:03:58.447Z,86.15
2022-08-22T04:06:56.456Z,86.48
2022-08-22T04:09:29.104Z,86.26
2022-08-22T04:12:14.372Z,86.07
2022-08-22T04:14:44.034Z,85.95
2022-08-22T04:17:29.379Z,85.66
2022-08-22T04:20:10.943Z,85.95
2022-08-22T04:23:12.040Z,86.03
2022-08-22T04:25:41.467Z,86.71
2022-08-22T04:28:30.781Z,86.57
2022-08-22T04:31:07.363Z,86.37
2022-08-22T04:33:43.004Z,86.57
2022-08-22T04:36:13.044Z,86.24
2022-08-22T04:38:51.268Z,85.97
2022-08-22T04:41:17.574Z,85.88
2022-08-22T04:43:57.297Z,85.80
2022-08-22T04:46:56.036Z,85.63
2022-08-22T04:49:40.368Z,85.40
2022-08-22T04:52:18.968Z,85.81
2022-08-22T04:55:08.560Z,85.64
2022-08-22T04:57:51.675Z,85.76
2022-08-22T05:00:18.534Z,86.15
2022-08-22T05:02:51.062Z,86.05
2022-08-22T05:05:23.907Z,85.97
2022-08-22T05:08:06.005Z,85.45
2022-08-22T05:10:39.743Z,85.70
2022-08-22T05:13:18.347Z,85.83
2022-08-22T05:15:50.003Z,85.41
2022-08-22T05:18:41.719Z,84.63
2022-08-22T05:21:11.238Z,84.38
2022-08-22T05:24:10.087Z,84.69
2022-08-22T05:26:52.558Z,85.00
2022-08-22T05:29:24.859Z,84.94
2022-08-22T05:32:00.407Z,84.60
2022-08-22T05:34:34.019Z,84.28
2022-08-22T05:37:19.550Z,84.35
2022-08-22T05:39:49.718Z,84.56
2022-08-22T05:42:26.129Z,84.88
2022-08-22T05:44:54.727Z,84.46
2022-08-22T05:47:24.455Z,83.77
2022-08-22T05:50:18.727Z,84.02
2022-08-22T05:53:06.193Z,83.56
2022-08-22T05:55:59.850Z,83.64
2022-08-22T05:58:48.024Z,83.95
2022-08-22T06:01:29.762Z,83.32
2022-08-22T06:04:06.414Z,84.86
2022-08-22T06:06:41.422Z,79.50
2022-08-22T06:09:22.990Z,77.70
2022-08-22T06:12:22.014Z,73.45
2022-08-22T06:15:03.307Z,74.11
2022-08-22T06:17:48.544Z,67.83
2022-08-22T06:20:23.133Z,65.40
2022-08-22T06:22:55.331Z,60.33
2022-08-22T06:25:33.838Z,60.32
2022-08-22T06:28:09.380Z,57.75
2022-08-22T06:30:39.232Z,57.48
2022-08-22T06:33:12.348Z,54.17
2022-08-22T06:35:58.319Z,52.73
2022-08-22T06:38:28.411Z,51.60
2022-08-22T06:40:58.445Z,49.84
2022-08-22T06:43:25.871Z,50.55
2022-08-22T06:45:53.260Z,48.04
2022-08-22T06:48:24.138Z,47.41
2022-08-22T06:50:56.400Z,46.72
2022-08-22T06:53:35.911Z,45.26
2022-08-22T06:56:05.587Z,44.60
2022-08-22T06:58:48.099Z,45.68
2022-08-22T07:01:19.700Z,45.71
2022-08-22T07:03:51.530Z,45.11
2022-08-22T07:06:28.345Z,45.56
2022-08-22T07:08:56.093Z,42.84
2022-08-22T07:11:27.916Z,43.02
2022-08-22T07:14:07.927Z,43.86
2022-08-22T07:16:55.995Z,42.96
2022-08-22T07:19:41.960Z,40.57
2022-08-22T07:22:32.900Z,37.54
2022-08-22T07:25:13.180Z,39.97
2022-08-22T07:27:45.201Z,40.18
2022-08-22T07:30:27.509Z,38.26
2022-08-22T07:32:54.736Z,40.34
2022-08-22T07:35:53.770Z,38.10
2022-08-22T07:38:32.436Z,36.21
2022-08-22T07:41:24.146Z,38.90
2022-08-22T07:43:57.835Z,39.61
2022-08-22T07:46:36.933Z,42.87
2022-08-22T07:49:13.703Z,40.00
2022-08-22T07:51:45.292Z,40.07
2022-08-22T07:54:16.462Z,42.88
2022-08-22T07:57:01.196Z,45.99
2022-08-22T07:59:31.302Z,43.37
2022-08-22T08:02:01.064Z,42.88
2022-08-22T08:04:34.883Z,41.87
2022-08-22T08:07:08.188Z,41.67
2022-08-22T08:09:41.248Z,42.73
2022-08-22T08:12:12.121Z,43.07
2022-08-22T08:14:41.665Z,40.99
2022-08-22T08:17:17.820Z,38.35
2022-08-22T08:19:45.628Z,40.17
2022-08-22T08:22:18.691Z,39.82
2022-08-22T08:24:46.603Z,38.16
2022-08-22T08:27:51.471Z,39.67
2022-08-22T08:30:23.461Z,37.44
2022-08-22T08:33:24.124Z,40.06
2022-08-22T08:36:03.048Z,41.15
2022-08-22T08:38:38.457Z,40.77
2022-08-22T08:41:13.858Z,40.70
2022-08-22T08:43:49.191Z,38.11
2022-08-22T08:46:27.956Z,36.53
2022-08-22T08:49:33.619Z,36.35
2022-08-22T08:52:13.316Z,39.97
2022-08-22T08:54:57.884Z,38.08
2022-08-22T08:57:45.836Z,36.70
2022-08-22T09:00:22.248Z,36.26
2022-08-22T09:06:14.486Z,35.10
2022-08-22T09:08:57.046Z,34.83
2022-08-22T09:11:32.244Z,34.62
2022-08-22T09:14:36.760Z,34.40
2022-08-22T09:17:15.306Z,34.80
2022-08-22T09:20:02.396Z,33.42
2022-08-22T09:23:27.535Z,33.96
2022-08-22T09:26:06.119Z,34.14
2022-08-22T09:28:57.861Z,32.94
2022-08-22T09:34:44.983Z,34.55
2022-08-22T09:37:41.438Z,32.65
2022-08-22T09:40:16.305Z,32.92
2022-08-22T09:40:28.673Z,32.02
2022-08-22T09:43:05.043Z,32.09
2022-08-22T09:45:50.376Z,33.58
2022-08-22T09:48:43.799Z,31.73
2022-08-22T09:51:32.624Z,31.66
2022-08-22T09:54:19.053Z,29.85
2022-08-22T09:56:55.138Z,28.86
2022-08-22T09:59:50.239Z,32.73
2022-08-22T10:02:17.306Z,31.83
2022-08-22T10:04:53.307Z,31.31
2022-08-22T10:07:59.040Z,37.48
2022-08-22T10:10:31.152Z,35.15
2022-08-22T10:13:16.086Z,32.06
2022-08-22T10:15:53.058Z,31.74
2022-08-22T10:18:52.763Z,30.92
2022-08-22T10:21:24.365Z,28.72
2022-08-22T10:24:06.990Z,27.81
2022-08-22T10:26:48.066Z,32.24
2022-08-22T10:29:35.559Z,27.00
2022-08-22T10:32:28.808Z,31.37
2022-08-22T10:35:10.775Z,32.20
2022-08-22T10:37:55.082Z,33.14
2022-08-22T10:40:35.986Z,32.96
2022-08-22T10:43:13.447Z,30.55
2022-08-22T10:45:43.918Z,28.89
2022-08-22T10:48:18.495Z,28.04
2022-08-22T10:50:49.336Z,27.68
2022-08-22T10:53:33.303Z,30.19
2022-08-22T10:56:10.562Z,28.31
2022-08-22T10:58:45.256Z,28.45
2022-08-22T11:01:37.645Z,31.02
2022-08-22T11:04:44.348Z,28.92
2022-08-22T11:07:39.539Z,29.83
2022-08-22T11:10:35.752Z,28.69
2022-08-22T11:13:14.250Z,27.61
2022-08-22T11:16:04.371Z,26.89
2022-08-22T11:18:57.854Z,28.24
2022-08-22T11:21:39.087Z,31.98
2022-08-22T11:24:06.335Z,28.44
2022-08-22T11:27:01.068Z,29.12
2022-08-22T11:29:31.007Z,28.90
2022-08-22T11:32:33.427Z,28.37
2022-08-22T11:35:39.773Z,28.65
2022-08-22T11:38:33.037Z,29.17
2022-08-22T11:41:04.571Z,28.21
2022-08-22T11:43:53.060Z,28.75
2022-08-22T11:46:30.375Z,27.71
2022-08-22T11:49:14.184Z,27.31
2022-08-22T11:52:28.671Z,27.29
2022-08-22T11:55:17.655Z,30.22
2022-08-22T11:57:48.441Z,31.25
2022-08-22T12:00:21.134Z,31.90
2022-08-22T12:03:17.858Z,29.57
2022-08-22T12:05:56.747Z,29.07
2022-08-22T12:08:52.250Z,26.89
2022-08-22T12:11:33.947Z,27.22
2022-08-22T12:14:14.799Z,29.78
2022-08-22T12:17:41.571Z,28.62
2022-08-22T12:20:28.732Z,29.15
2022-08-22T12:23:40.751Z,31.55
2022-08-22T12:26:38.858Z,34.45
2022-08-22T12:29:44.566Z,37.04
2022-08-22T12:32:27.652Z,36.40
2022-08-22T12:35:13.893Z,34.80
2022-08-22T12:38:02.711Z,30.89
2022-08-22T12:41:00.157Z,29.67
2022-08-22T12:43:45.079Z,28.53
2022-08-22T12:46:19.314Z,26.66
2022-08-22T12:48:52.164Z,28.47
2022-08-22T12:51:51.962Z,26.72
2022-08-22T12:54:57.470Z,28.96
2022-08-22T12:57:54.884Z,32.98
2022-08-22T13:00:29.439Z,32.61
2022-08-22T13:03:01.940Z,33.35
2022-08-22T13:05:30.664Z,29.78
2022-08-22T13:08:09.633Z,28.39
2022-08-22T13:10:56.718Z,28.36
2022-08-22T13:13:36.465Z,30.39
2022-08-22T13:16:15.668Z,30.83
2022-08-22T13:18:55.324Z,28.29
2022-08-22T13:21:36.060Z,27.51
2022-08-22T13:24:39.013Z,26.17
2022-08-22T13:27:20.474Z,25.61
2022-08-22T13:29:57.017Z,25.37
2022-08-22T13:32:30.651Z,27.03
2022-08-22T13:35:00.668Z,28.90
2022-08-22T13:37:37.143Z,29.19
2022-08-22T13:40:10.272Z,27.32
2022-08-22T13:42:48.704Z,29.53
2022-08-22T13:45:25.226Z,30.01
2022-08-22T13:47:58.146Z,30.32
2022-08-22T13:50:32.411Z,29.34
2022-08-22T13:53:38.147Z,29.53
2022-08-22T13:56:20.583Z,29.23
2022-08-22T13:58:53.054Z,30.26
2022-08-22T14:01:34.739Z,31.30
2022-08-22T14:04:36.396Z,32.60
2022-08-22T14:07:06.282Z,30.66
2022-08-22T14:09:53.023Z,30.48
2022-08-22T14:12:28.727Z,30.94
2022-08-22T14:15:07.231Z,30.80
2022-08-22T14:17:43.103Z,30.29
2022-08-22T14:20:32.426Z,31.66
2022-08-22T14:23:07.301Z,31.45
2022-08-22T14:25:36.560Z,32.83
2022-08-22T14:28:09.394Z,31.96
2022-08-22T14:30:50.797Z,32.46
2022-08-22T14:33:25.643Z,32.71
2022-08-22T14:35:59.338Z,32.25
2022-08-22T14:38:40.511Z,31.72
2022-08-22T14:41:56.230Z,32.77
2022-08-22T14:44:23.422Z,32.29
2022-08-22T14:47:03.744Z,32.65
2022-08-22T14:49:49.692Z,33.96
2022-08-22T14:52:37.205Z,33.47
2022-08-22T14:55:23.238Z,34.56
2022-08-22T14:57:55.324Z,35.22
2022-08-22T15:00:40.977Z,34.40
2022-08-22T15:03:07.883Z,34.36
2022-08-22T15:06:02.480Z,33.53
2022-08-22T15:08:31.767Z,32.70
2022-08-22T15:11:08.871Z,32.80
2022-08-22T15:13:38.367Z,32.84
2022-08-22T15:16:17.485Z,32.81
2022-08-22T15:18:51.666Z,32.87
2022-08-22T15:21:27.500Z,33.87
2022-08-22T15:23:59.615Z,32.88
2022-08-22T15:26:32.019Z,32.59
2022-08-22T15:29:09.474Z,32.10
2022-08-22T15:31:37.901Z,32.04
2022-08-22T15:34:23.999Z,32.50
2022-08-22T15:37:18.750Z,32.71
2022-08-22T15:40:07.505Z,32.66
2022-08-22T15:42:42.312Z,32.30
2022-08-22T15:45:37.631Z,32.62
2022-08-22T15:48:09.407Z,32.92
2022-08-22T15:50:41.938Z,33.39
2022-08-22T15:53:08.443Z,33.59
2022-08-22T15:55:37.214Z,33.18
2022-08-22T15:58:07.294Z,33.16
2022-08-22T16:00:43.494Z,33.46
2022-08-22T16:03:14.057Z,33.55
2022-08-22T16:05:55.035Z,33.89
2022-08-22T16:08:36.002Z,35.08
2022-08-22T16:11:02.492Z,34.97
2022-08-22T16:13:29.503Z,34.88
2022-08-22T16:16:13.863Z,35.26
2022-08-22T16:18:40.244Z,34.60
2022-08-22T16:21:09.892Z,34.22
2022-08-22T16:23:51.298Z,33.45
2022-08-22T16:26:38.175Z,33.52
2022-08-22T16:29:13.633Z,33.53
2022-08-22T16:31:43.734Z,33.50
2022-08-22T16:34:16.443Z,33.95
2022-08-22T16:36:54.803Z,33.33
2022-08-22T16:39:21.445Z,34.40
2022-08-22T16:41:51.603Z,35.04
2022-08-22T16:44:30.796Z,35.23
2022-08-22T16:47:10.866Z,35.62
2022-08-22T16:49:55.412Z,35.31
2022-08-22T16:52:25.282Z,35.67
2022-08-22T16:54:58.738Z,35.85
2022-08-22T16:58:05.343Z,35.95
2022-08-22T17:00:46.590Z,36.00
2022-08-22T17:03:40.427Z,36.83
2022-08-22T17:06:46.248Z,36.09
2022-08-22T17:09:18.839Z,36.91
2022-08-22T17:12:23.132Z,37.83
2022-08-22T17:15:07.984Z,37.53
2022-08-22T17:17:48.947Z,37.79
2022-08-22T17:20:42.785Z,38.45
2022-08-22T17:23:29.392Z,38.20
2022-08-22T17:25:58.700Z,38.54
2022-08-22T17:29:02.576Z,39.32
2022-08-22T17:31:39.381Z,40.37
2022-08-22T17:34:18.543Z,42.66
2022-08-22T17:37:03.735Z,43.11
2022-08-22T17:39:54.573Z,42.86
2022-08-22T17:42:40.428Z,42.33
2022-08-22T17:45:10.087Z,43.92
2022-08-22T17:47:46.371Z,45.92
2022-08-22T17:50:15.817Z,47.35
2022-08-22T17:52:51.370Z,48.56
2022-08-22T17:55:29.268Z,51.10
2022-08-22T17:58:03.790Z,52.34
2022-08-22T18:00:38.267Z,53.17
2022-08-22T18:03:29.567Z,54.94
2022-08-22T18:06:10.080Z,55.38
2022-08-22T18:11:44.550Z,56.21
2022-08-22T18:14:45.943Z,56.70
2022-08-22T18:17:20.115Z,57.78
2022-08-22T18:19:57.260Z,58.50
2022-08-22T18:22:30.147Z,59.03
2022-08-22T18:25:11.572Z,59.58
2022-08-22T18:27:45.706Z,60.07
2022-08-22T18:30:12.460Z,60.57
2022-08-22T18:32:48.721Z,61.69
2022-08-22T18:35:41.778Z,62.00
2022-08-22T18:38:24.259Z,60.99
2022-08-22T18:41:04.040Z,61.47
2022-08-22T18:43:39.675Z,57.66
2022-08-22T18:46:33.094Z,57.36
2022-08-22T18:49:15.390Z,55.72
2022-08-22T18:51:43.401Z,54.75
2022-08-22T18:54:11.328Z,54.07
2022-08-22T18:57:00.196Z,52.50
2022-08-22T18:59:44.651Z,51.79
2022-08-22T19:02:26.270Z,50.17
2022-08-22T19:04:53.278Z,49.58
2022-08-22T19:07:31.939Z,49.64
2022-08-22T19:10:29.597Z,49.32
2022-08-22T19:13:20.747Z,48.95
2022-08-22T19:16:31.920Z,50.21
2022-08-22T19:19:04.629Z,51.04
2022-08-22T19:21:55.056Z,51.61
2022-08-22T19:24:27.131Z,53.53
2022-08-22T19:27:18.472Z,54.98
2022-08-22T19:29:44.772Z,56.34
2022-08-22T19:32:59.810Z,57.78
2022-08-22T19:35:51.473Z,58.99
2022-08-22T19:38:51.014Z,60.14
2022-08-22T19:41:41.299Z,61.26
2022-08-22T19:44:31.815Z,61.40
2022-08-22T19:47:21.299Z,60.04
2022-08-22T19:49:51.179Z,61.48
2022-08-22T19:52:57.751Z,62.77
2022-08-22T19:55:37.330Z,62.54
2022-08-22T19:58:34.397Z,63.95
2022-08-22T20:01:31.872Z,64.16
2022-08-22T20:04:26.443Z,61.18
2022-08-22T20:07:02.374Z,63.08
2022-08-22T20:09:47.887Z,64.42
2022-08-22T20:12:24.072Z,67.02
2022-08-22T20:14:51.246Z,67.48
2022-08-22T20:17:26.945Z,65.96
2022-08-22T20:20:17.398Z,68.00
2022-08-22T20:22:58.199Z,69.54
2022-08-22T20:25:35.412Z,70.01
2022-08-22T20:28:19.087Z,70.61
2022-08-22T20:30:48.995Z,70.89
2022-08-22T20:33:29.304Z,71.21
2022-08-22T20:36:00.278Z,71.62
2022-08-22T20:38:43.427Z,72.74
2022-08-22T20:41:41.777Z,73.35
2022-08-22T20:44:19.894Z,73.32
2022-08-22T20:46:47.175Z,74.29
2022-08-22T20:49:31.649Z,74.83
2022-08-22T20:52:01.982Z,75.19
2022-08-22T20:54:37.842Z,75.37
2022-08-22T20:57:16.886Z,74.95
2022-08-22T21:00:11.708Z,75.37
2022-08-22T21:02:44.779Z,75.40
2022-08-22T21:05:12.236Z,75.63
2022-08-22T21:07:43.719Z,75.68
2022-08-22T21:10:45.506Z,75.78
2022-08-22T21:13:19.846Z,76.01
2022-08-22T21:16:10.147Z,77.01
2022-08-22T21:18:42.139Z,77.01
2022-08-22T21:21:21.007Z,77.75
2022-08-22T21:24:00.937Z,77.64
2022-08-22T21:26:27.858Z,77.68
2022-08-22T21:29:14.023Z,78.01
2022-08-22T21:31:50.584Z,78.12
2022-08-22T21:34:21.882Z,78.29
2022-08-22T21:36:54.548Z,78.00
2022-08-22T21:39:33.844Z,78.44
2022-08-22T21:42:12.448Z,78.90
2022-08-22T21:44:54.011Z,78.48
2022-08-22T21:47:30.203Z,79.18
2022-08-22T21:50:05.767Z,78.42
2022-08-22T21:52:35.587Z,79.23
2022-08-22T21:55:14.103Z,79.46
2022-08-22T21:57:40.879Z,79.91
2022-08-22T22:00:49.566Z,80.01
2022-08-22T22:03:22.551Z,79.85
2022-08-22T22:05:52.654Z,79.48
2022-08-22T22:08:19.256Z,79.98
2022-08-22T22:10:48.948Z,79.75
2022-08-22T22:13:16.820Z,80.07
2022-08-22T22:15:45.195Z,79.94
2022-08-22T22:18:17.527Z,80.78
2022-08-22T22:20:45.876Z,80.97
2022-08-22T22:23:12.744Z,81.37
2022-08-22T22:25:42.400Z,81.25
2022-08-22T22:28:28.659Z,81.39
2022-08-22T22:30:55.585Z,81.16
2022-08-22T22:33:30.461Z,81.92
2022-08-22T22:36:03.026Z,81.71
2022-08-22T22:38:29.861Z,81.76
2022-08-22T22:40:56.521Z,81.31
2022-08-22T22:43:22.923Z,81.40
2022-08-22T22:45:50.265Z,81.03
2022-08-22T22:48:23.800Z,81.15
2022-08-22T22:50:51.936Z,81.75
2022-08-22T22:53:19.648Z,81.57
2022-08-22T22:55:48.013Z,81.62
2022-08-22T22:58:27.188Z,81.60
2022-08-22T23:00:53.599Z,81.54
2022-08-22T23:03:20.208Z,81.49
2022-08-22T23:05:47.099Z,81.97
2022-08-22T23:08:13.596Z,81.75
2022-08-22T23:10:39.968Z,82.04
2022-08-22T23:13:06.943Z,82.65
2022-08-22T23:15:33.364Z,83.52
2022-08-22T23:17:59.862Z,84.30
2022-08-22T23:20:26.703Z,84.74
2022-08-22T23:22:53.094Z,83.95
2022-08-22T23:25:19.972Z,83.26
2022-08-22T23:27:52.156Z,83.65
2022-08-22T23:30:25.438Z,83.38
2022-08-22T23:32:51.806Z,83.37
2022-08-22T23:35:18.322Z,82.73
2022-08-22T23:37:45.503Z,82.75
2022-08-22T23:40:11.939Z,83.35
2022-08-22T23:42:38.392Z,83.55
2022-08-22T23:45:06.137Z,84.13
2022-08-22T23:47:32.511Z,83.83
2022-08-22T23:49:58.874Z,84.16
2022-08-22T23:52:31.018Z,84.14
2022-08-22T23:54:57.601Z,83.12
2022-08-22T23:57:27.733Z,82.89
2022-08-22T23:59:57.684Z,83.15
